sensor_id;sensor_type;location;lat;lon;timestamp;P1;durP1;ratioP1;P2;durP2;ratioP2
32786;SDS011;19139;49.372;8.580;2023-02-08T00:01:54;13.63;;;10.50;;
32786;SDS011;19139;49.372;8.580;2023-02-08T00:04:26;15.23;;;10.80;;
32786;SDS011;19139;49.372;8.580;2023-02-08T00:06:57;13.17;;;9.43;;
32786;SDS011;19139;49.372;8.580;2023-02-08T00:09:24;14.57;;;10.57;;
32786;SDS011;19139;49.372;8.580;2023-02-08T00:11:55;13.83;;;10.20;;
32786;SDS011;19139;49.372;8.580;2023-02-08T00:14:27;13.03;;;9.90;;
32786;SDS011;19139;49.372;8.580;2023-02-08T00:16:53;14.03;;;10.27;;
32786;SDS011;19139;49.372;8.580;2023-02-08T00:19:25;11.93;;;9.60;;
32786;SDS011;19139;49.372;8.580;2023-02-08T00:21:57;13.83;;;9.93;;
32786;SDS011;19139;49.372;8.580;2023-02-08T00:24:28;13.10;;;9.50;;
32786;SDS011;19139;49.372;8.580;2023-02-08T00:26:55;13.23;;;9.50;;
32786;SDS011;19139;49.372;8.580;2023-02-08T00:29:26;14.07;;;9.60;;
32786;SDS011;19139;49.372;8.580;2023-02-08T00:31:58;13.37;;;9.27;;
32786;SDS011;19139;49.372;8.580;2023-02-08T00:34:24;14.07;;;10.37;;
32786;SDS011;19139;49.372;8.580;2023-02-08T00:36:56;13.07;;;9.10;;
32786;SDS011;19139;49.372;8.580;2023-02-08T00:39:27;12.20;;;9.33;;
32786;SDS011;19139;49.372;8.580;2023-02-08T00:41:54;12.47;;;9.80;;
32786;SDS011;19139;49.372;8.580;2023-02-08T00:44:20;13.27;;;9.63;;
32786;SDS011;19139;49.372;8.580;2023-02-08T00:46:52;12.03;;;9.20;;
32786;SDS011;19139;49.372;8.580;2023-02-08T00:49:24;14.60;;;10.23;;
32786;SDS011;19139;49.372;8.580;2023-02-08T00:51:56;13.23;;;9.23;;
32786;SDS011;19139;49.372;8.580;2023-02-08T00:54:27;13.10;;;9.43;;
32786;SDS011;19139;49.372;8.580;2023-02-08T00:56:54;12.90;;;9.70;;
32786;SDS011;19139;49.372;8.580;2023-02-08T00:59:25;13.33;;;8.43;;
32786;SDS011;19139;49.372;8.580;2023-02-08T01:01:57;12.00;;;9.17;;
32786;SDS011;19139;49.372;8.580;2023-02-08T01:04:24;14.73;;;9.70;;
32786;SDS011;19139;49.372;8.580;2023-02-08T01:06:56;14.63;;;10.20;;
32786;SDS011;19139;49.372;8.580;2023-02-08T01:09:27;13.27;;;9.17;;
32786;SDS011;19139;49.372;8.580;2023-02-08T01:11:54;12.27;;;9.17;;
32786;SDS011;19139;49.372;8.580;2023-02-08T01:14:25;14.40;;;9.10;;
32786;SDS011;19139;49.372;8.580;2023-02-08T01:16:57;10.57;;;8.67;;
32786;SDS011;19139;49.372;8.580;2023-02-08T01:19:23;12.17;;;8.60;;
32786;SDS011;19139;49.372;8.580;2023-02-08T01:21:55;12.10;;;9.20;;
32786;SDS011;19139;49.372;8.580;2023-02-08T01:24:27;13.50;;;9.17;;
32786;SDS011;19139;49.372;8.580;2023-02-08T01:26:53;13.13;;;9.00;;
32786;SDS011;19139;49.372;8.580;2023-02-08T01:29:20;13.23;;;8.87;;
32786;SDS011;19139;49.372;8.580;2023-02-08T01:31:51;10.93;;;8.83;;
32786;SDS011;19139;49.372;8.580;2023-02-08T01:34:23;9.53;;;8.00;;
32786;SDS011;19139;49.372;8.580;2023-02-08T01:36:54;12.20;;;9.60;;
32786;SDS011;19139;49.372;8.580;2023-02-08T01:39:26;11.50;;;9.30;;
32786;SDS011;19139;49.372;8.580;2023-02-08T01:41:57;10.97;;;8.40;;
32786;SDS011;19139;49.372;8.580;2023-02-08T01:47:43;12.03;;;8.23;;
32786;SDS011;19139;49.372;8.580;2023-02-08T01:50:17;10.63;;;7.50;;
32786;SDS011;19139;49.372;8.580;2023-02-08T01:52:52;13.03;;;8.90;;
32786;SDS011;19139;49.372;8.580;2023-02-08T01:55:25;9.77;;;7.23;;
32786;SDS011;19139;49.372;8.580;2023-02-08T01:58:02;10.00;;;7.93;;
32786;SDS011;19139;49.372;8.580;2023-02-08T02:00:34;11.03;;;7.93;;
32786;SDS011;19139;49.372;8.580;2023-02-08T02:03:05;10.77;;;7.20;;
32786;SDS011;19139;49.372;8.580;2023-02-08T02:05:38;9.90;;;7.20;;
32786;SDS011;19139;49.372;8.580;2023-02-08T02:08:12;9.20;;;7.13;;
32786;SDS011;19139;49.372;8.580;2023-02-08T02:10:44;11.67;;;8.23;;
32786;SDS011;19139;49.372;8.580;2023-02-08T02:13:19;11.03;;;7.10;;
32786;SDS011;19139;49.372;8.580;2023-02-08T02:15:53;9.10;;;7.43;;
32786;SDS011;19139;49.372;8.580;2023-02-08T02:18:25;9.60;;;7.50;;
32786;SDS011;19139;49.372;8.580;2023-02-08T02:35:07;9.00;;;7.37;;
32786;SDS011;19139;49.372;8.580;2023-02-08T02:38:06;9.93;;;7.17;;
32786;SDS011;19139;49.372;8.580;2023-02-08T02:49:17;9.00;;;6.83;;
32786;SDS011;19139;49.372;8.580;2023-02-08T02:51:55;9.50;;;7.33;;
32786;SDS011;19139;49.372;8.580;2023-02-08T02:54:52;9.30;;;7.30;;
32786;SDS011;19139;49.372;8.580;2023-02-08T02:57:25;10.93;;;8.13;;
32786;SDS011;19139;49.372;8.580;2023-02-08T03:00:00;10.10;;;6.60;;
32786;SDS011;19139;49.372;8.580;2023-02-08T03:02:38;8.53;;;6.67;;
32786;SDS011;19139;49.372;8.580;2023-02-08T03:05:10;8.47;;;6.40;;
32786;SDS011;19139;49.372;8.580;2023-02-08T03:10:34;7.80;;;6.43;;
32786;SDS011;19139;49.372;8.580;2023-02-08T03:16:18;7.53;;;6.73;;
32786;SDS011;19139;49.372;8.580;2023-02-08T03:18:58;8.03;;;6.47;;
32786;SDS011;19139;49.372;8.580;2023-02-08T03:21:53;9.73;;;7.33;;
32786;SDS011;19139;49.372;8.580;2023-02-08T03:24:40;7.67;;;6.43;;
32786;SDS011;19139;49.372;8.580;2023-02-08T03:27:29;9.00;;;6.63;;
32786;SDS011;19139;49.372;8.580;2023-02-08T03:32:53;7.83;;;6.87;;
32786;SDS011;19139;49.372;8.580;2023-02-08T03:35:39;8.70;;;6.57;;
32786;SDS011;19139;49.372;8.580;2023-02-08T03:38:21;8.00;;;6.97;;
32786;SDS011;19139;49.372;8.580;2023-02-08T03:40:57;8.10;;;5.93;;
32786;SDS011;19139;49.372;8.580;2023-02-08T03:46:56;8.00;;;6.87;;
32786;SDS011;19139;49.372;8.580;2023-02-08T03:49:33;8.23;;;6.23;;
32786;SDS011;19139;49.372;8.580;2023-02-08T03:52:07;8.13;;;6.07;;
32786;SDS011;19139;49.372;8.580;2023-02-08T03:55:23;6.40;;;5.77;;
32786;SDS011;19139;49.372;8.580;2023-02-08T03:57:39;8.00;;;6.07;;
32786;SDS011;19139;49.372;8.580;2023-02-08T04:00:18;9.23;;;6.40;;
32786;SDS011;19139;49.372;8.580;2023-02-08T04:02:55;7.23;;;6.37;;
32786;SDS011;19139;49.372;8.580;2023-02-08T04:05:31;7.67;;;6.63;;
32786;SDS011;19139;49.372;8.580;2023-02-08T04:08:03;8.73;;;6.53;;
32786;SDS011;19139;49.372;8.580;2023-02-08T04:10:34;7.63;;;6.40;;
32786;SDS011;19139;49.372;8.580;2023-02-08T04:13:06;7.27;;;5.90;;
32786;SDS011;19139;49.372;8.580;2023-02-08T04:15:37;8.23;;;6.20;;
32786;SDS011;19139;49.372;8.580;2023-02-08T04:18:09;6.73;;;6.03;;
32786;SDS011;19139;49.372;8.580;2023-02-08T04:20:40;5.97;;;5.13;;
32786;SDS011;19139;49.372;8.580;2023-02-08T04:23:12;7.43;;;5.93;;
32786;SDS011;19139;49.372;8.580;2023-02-08T04:25:43;9.33;;;6.47;;
32786;SDS011;19139;49.372;8.580;2023-02-08T04:28:15;7.20;;;5.73;;
32786;SDS011;19139;49.372;8.580;2023-02-08T04:30:46;8.03;;;6.00;;
32786;SDS011;19139;49.372;8.580;2023-02-08T04:33:18;7.43;;;6.17;;
32786;SDS011;19139;49.372;8.580;2023-02-08T04:35:49;8.23;;;6.40;;
32786;SDS011;19139;49.372;8.580;2023-02-08T04:38:21;6.80;;;5.97;;
32786;SDS011;19139;49.372;8.580;2023-02-08T04:40:53;7.40;;;6.10;;
32786;SDS011;19139;49.372;8.580;2023-02-08T04:43:24;8.27;;;6.30;;
32786;SDS011;19139;49.372;8.580;2023-02-08T04:45:56;6.17;;;5.53;;
32786;SDS011;19139;49.372;8.580;2023-02-08T04:48:27;6.53;;;5.83;;
32786;SDS011;19139;49.372;8.580;2023-02-08T04:50:59;6.87;;;6.00;;
32786;SDS011;19139;49.372;8.580;2023-02-08T04:53:30;6.13;;;5.50;;
32786;SDS011;19139;49.372;8.580;2023-02-08T04:56:02;7.30;;;5.70;;
32786;SDS011;19139;49.372;8.580;2023-02-08T04:58:34;6.13;;;5.53;;
32786;SDS011;19139;49.372;8.580;2023-02-08T05:01:06;6.70;;;5.60;;
32786;SDS011;19139;49.372;8.580;2023-02-08T05:03:40;6.70;;;5.87;;
32786;SDS011;19139;49.372;8.580;2023-02-08T05:06:12;6.43;;;5.10;;
32786;SDS011;19139;49.372;8.580;2023-02-08T05:08:43;6.80;;;5.50;;
32786;SDS011;19139;49.372;8.580;2023-02-08T05:11:21;6.10;;;5.37;;
32786;SDS011;19139;49.372;8.580;2023-02-08T05:13:54;7.07;;;5.87;;
32786;SDS011;19139;49.372;8.580;2023-02-08T05:16:20;7.40;;;5.73;;
32786;SDS011;19139;49.372;8.580;2023-02-08T05:18:47;6.40;;;5.70;;
32786;SDS011;19139;49.372;8.580;2023-02-08T05:21:14;6.73;;;5.43;;
32786;SDS011;19139;49.372;8.580;2023-02-08T05:23:40;7.63;;;6.40;;
32786;SDS011;19139;49.372;8.580;2023-02-08T05:26:07;6.60;;;5.53;;
32786;SDS011;19139;49.372;8.580;2023-02-08T05:28:35;6.67;;;5.23;;
32786;SDS011;19139;49.372;8.580;2023-02-08T05:31:10;7.17;;;4.93;;
32786;SDS011;19139;49.372;8.580;2023-02-08T05:33:44;5.93;;;5.10;;
32786;SDS011;19139;49.372;8.580;2023-02-08T05:36:11;6.33;;;5.07;;
32786;SDS011;19139;49.372;8.580;2023-02-08T05:38:38;6.00;;;5.10;;
32786;SDS011;19139;49.372;8.580;2023-02-08T05:41:05;6.57;;;5.10;;
32786;SDS011;19139;49.372;8.580;2023-02-08T05:43:31;5.70;;;5.10;;
32786;SDS011;19139;49.372;8.580;2023-02-08T05:45:58;6.23;;;5.03;;
32786;SDS011;19139;49.372;8.580;2023-02-08T05:48:24;6.73;;;5.47;;
32786;SDS011;19139;49.372;8.580;2023-02-08T05:50:51;6.20;;;5.40;;
32786;SDS011;19139;49.372;8.580;2023-02-08T05:53:18;7.67;;;5.90;;
32786;SDS011;19139;49.372;8.580;2023-02-08T05:55:45;6.03;;;5.23;;
32786;SDS011;19139;49.372;8.580;2023-02-08T05:58:15;5.77;;;5.03;;
32786;SDS011;19139;49.372;8.580;2023-02-08T06:00:42;5.73;;;5.17;;
32786;SDS011;19139;49.372;8.580;2023-02-08T06:03:09;5.70;;;5.10;;
32786;SDS011;19139;49.372;8.580;2023-02-08T06:05:36;5.20;;;4.70;;
32786;SDS011;19139;49.372;8.580;2023-02-08T06:08:04;6.10;;;4.90;;
32786;SDS011;19139;49.372;8.580;2023-02-08T06:10:31;6.47;;;5.17;;
32786;SDS011;19139;49.372;8.580;2023-02-08T06:12:58;5.97;;;5.37;;
32786;SDS011;19139;49.372;8.580;2023-02-08T06:15:24;5.70;;;5.10;;
32786;SDS011;19139;49.372;8.580;2023-02-08T06:17:51;5.83;;;4.77;;
32786;SDS011;19139;49.372;8.580;2023-02-08T06:20:18;6.47;;;5.07;;
32786;SDS011;19139;49.372;8.580;2023-02-08T06:22:44;7.83;;;4.93;;
32786;SDS011;19139;49.372;8.580;2023-02-08T06:25:11;6.10;;;5.17;;
32786;SDS011;19139;49.372;8.580;2023-02-08T06:27:38;6.33;;;4.60;;
32786;SDS011;19139;49.372;8.580;2023-02-08T06:30:04;6.27;;;5.53;;
32786;SDS011;19139;49.372;8.580;2023-02-08T06:32:31;6.70;;;5.40;;
32786;SDS011;19139;49.372;8.580;2023-02-08T06:34:58;5.40;;;4.77;;
32786;SDS011;19139;49.372;8.580;2023-02-08T06:37:24;5.93;;;4.73;;
32786;SDS011;19139;49.372;8.580;2023-02-08T06:39:51;6.33;;;5.07;;
32786;SDS011;19139;49.372;8.580;2023-02-08T06:42:18;6.00;;;5.33;;
32786;SDS011;19139;49.372;8.580;2023-02-08T06:44:44;6.53;;;5.27;;
32786;SDS011;19139;49.372;8.580;2023-02-08T06:47:20;24.23;;;15.33;;
32786;SDS011;19139;49.372;8.580;2023-02-08T06:49:47;23.57;;;17.03;;
32786;SDS011;19139;49.372;8.580;2023-02-08T06:52:14;18.93;;;15.20;;
32786;SDS011;19139;49.372;8.580;2023-02-08T06:54:41;17.83;;;14.67;;
32786;SDS011;19139;49.372;8.580;2023-02-08T06:57:08;15.47;;;13.03;;
32786;SDS011;19139;49.372;8.580;2023-02-08T06:59:38;15.30;;;13.20;;
32786;SDS011;19139;49.372;8.580;2023-02-08T07:02:05;15.50;;;13.43;;
32786;SDS011;19139;49.372;8.580;2023-02-08T07:04:35;15.07;;;12.23;;
32786;SDS011;19139;49.372;8.580;2023-02-08T07:07:02;16.77;;;12.43;;
32786;SDS011;19139;49.372;8.580;2023-02-08T07:09:28;13.87;;;11.73;;
32786;SDS011;19139;49.372;8.580;2023-02-08T07:11:55;14.27;;;11.87;;
32786;SDS011;19139;49.372;8.580;2023-02-08T07:14:21;13.73;;;11.87;;
32786;SDS011;19139;49.372;8.580;2023-02-08T07:16:48;13.67;;;10.70;;
32786;SDS011;19139;49.372;8.580;2023-02-08T07:19:15;13.83;;;10.87;;
32786;SDS011;19139;49.372;8.580;2023-02-08T07:21:41;14.73;;;10.83;;
32786;SDS011;19139;49.372;8.580;2023-02-08T07:24:08;13.30;;;10.70;;
32786;SDS011;19139;49.372;8.580;2023-02-08T07:26:34;14.33;;;10.90;;
32786;SDS011;19139;49.372;8.580;2023-02-08T07:29:01;12.90;;;10.50;;
32786;SDS011;19139;49.372;8.580;2023-02-08T07:31:28;13.67;;;11.10;;
32786;SDS011;19139;49.372;8.580;2023-02-08T07:33:55;13.10;;;9.73;;
32786;SDS011;19139;49.372;8.580;2023-02-08T07:36:28;13.67;;;9.80;;
32786;SDS011;19139;49.372;8.580;2023-02-08T07:38:55;16.90;;;9.70;;
32786;SDS011;19139;49.372;8.580;2023-02-08T07:41:22;13.00;;;10.50;;
32786;SDS011;19139;49.372;8.580;2023-02-08T07:43:48;14.40;;;10.13;;
32786;SDS011;19139;49.372;8.580;2023-02-08T07:46:16;18.27;;;14.40;;
32786;SDS011;19139;49.372;8.580;2023-02-08T07:48:44;17.33;;;13.53;;
32786;SDS011;19139;49.372;8.580;2023-02-08T07:51:11;15.47;;;12.30;;
32786;SDS011;19139;49.372;8.580;2023-02-08T07:53:39;14.87;;;10.93;;
32786;SDS011;19139;49.372;8.580;2023-02-08T07:56:06;12.77;;;10.23;;
32786;SDS011;19139;49.372;8.580;2023-02-08T07:58:38;13.53;;;11.27;;
32786;SDS011;19139;49.372;8.580;2023-02-08T08:01:04;12.43;;;10.53;;
32786;SDS011;19139;49.372;8.580;2023-02-08T08:03:47;11.97;;;9.83;;
32786;SDS011;19139;49.372;8.580;2023-02-08T08:06:14;11.70;;;9.83;;
32786;SDS011;19139;49.372;8.580;2023-02-08T08:08:41;13.23;;;9.60;;
32786;SDS011;19139;49.372;8.580;2023-02-08T08:11:17;11.23;;;9.53;;
32786;SDS011;19139;49.372;8.580;2023-02-08T08:13:45;11.57;;;9.43;;
32786;SDS011;19139;49.372;8.580;2023-02-08T08:16:16;10.80;;;8.80;;
32786;SDS011;19139;49.372;8.580;2023-02-08T08:18:43;11.23;;;8.27;;
32786;SDS011;19139;49.372;8.580;2023-02-08T08:21:11;10.97;;;8.53;;
32786;SDS011;19139;49.372;8.580;2023-02-08T08:23:38;12.00;;;8.77;;
32786;SDS011;19139;49.372;8.580;2023-02-08T08:26:15;13.90;;;8.10;;
32786;SDS011;19139;49.372;8.580;2023-02-08T08:28:44;10.07;;;8.27;;
32786;SDS011;19139;49.372;8.580;2023-02-08T08:31:17;11.67;;;8.60;;
32786;SDS011;19139;49.372;8.580;2023-02-08T08:33:47;10.40;;;7.67;;
32786;SDS011;19139;49.372;8.580;2023-02-08T08:36:14;8.47;;;7.33;;
32786;SDS011;19139;49.372;8.580;2023-02-08T08:38:41;11.30;;;8.40;;
32786;SDS011;19139;49.372;8.580;2023-02-08T08:41:12;8.37;;;7.37;;
32786;SDS011;19139;49.372;8.580;2023-02-08T08:43:46;9.73;;;7.87;;
32786;SDS011;19139;49.372;8.580;2023-02-08T08:46:18;12.20;;;7.97;;
32786;SDS011;19139;49.372;8.580;2023-02-08T08:48:45;8.23;;;7.07;;
32786;SDS011;19139;49.372;8.580;2023-02-08T08:51:16;8.87;;;7.27;;
32786;SDS011;19139;49.372;8.580;2023-02-08T08:53:48;9.70;;;7.93;;
32786;SDS011;19139;49.372;8.580;2023-02-08T08:56:14;9.07;;;7.97;;
32786;SDS011;19139;49.372;8.580;2023-02-08T08:58:46;8.23;;;7.37;;
32786;SDS011;19139;49.372;8.580;2023-02-08T09:01:17;8.57;;;6.77;;
32786;SDS011;19139;49.372;8.580;2023-02-08T09:03:44;11.10;;;7.10;;
32786;SDS011;19139;49.372;8.580;2023-02-08T09:06:11;11.43;;;7.60;;
32786;SDS011;19139;49.372;8.580;2023-02-08T09:08:38;10.70;;;8.03;;
32786;SDS011;19139;49.372;8.580;2023-02-08T09:11:05;8.50;;;7.47;;
32786;SDS011;19139;49.372;8.580;2023-02-08T09:13:37;14.33;;;11.67;;
32786;SDS011;19139;49.372;8.580;2023-02-08T09:16:05;14.13;;;12.17;;
32786;SDS011;19139;49.372;8.580;2023-02-08T09:18:36;13.10;;;11.63;;
32786;SDS011;19139;49.372;8.580;2023-02-08T09:21:13;14.00;;;10.47;;
32786;SDS011;19139;49.372;8.580;2023-02-08T09:23:46;12.30;;;9.77;;
32786;SDS011;19139;49.372;8.580;2023-02-08T09:26:14;12.97;;;9.47;;
32786;SDS011;19139;49.372;8.580;2023-02-08T09:28:46;11.30;;;8.87;;
32786;SDS011;19139;49.372;8.580;2023-02-08T09:31:19;13.37;;;9.47;;
32786;SDS011;19139;49.372;8.580;2023-02-08T09:33:49;10.10;;;8.80;;
32786;SDS011;19139;49.372;8.580;2023-02-08T09:36:17;11.07;;;8.93;;
32786;SDS011;19139;49.372;8.580;2023-02-08T09:38:45;10.20;;;8.57;;
32786;SDS011;19139;49.372;8.580;2023-02-08T09:49:47;10.97;;;8.20;;
32786;SDS011;19139;49.372;8.580;2023-02-08T09:52:40;11.10;;;7.90;;
32786;SDS011;19139;49.372;8.580;2023-02-08T09:55:24;10.00;;;7.93;;
32786;SDS011;19139;49.372;8.580;2023-02-08T09:58:12;10.23;;;7.50;;
32786;SDS011;19139;49.372;8.580;2023-02-08T10:00:53;11.03;;;7.23;;
32786;SDS011;19139;49.372;8.580;2023-02-08T10:03:31;8.70;;;7.13;;
32786;SDS011;19139;49.372;8.580;2023-02-08T10:06:08;10.07;;;7.13;;
32786;SDS011;19139;49.372;8.580;2023-02-08T10:08:47;8.50;;;6.90;;
32786;SDS011;19139;49.372;8.580;2023-02-08T10:19:49;10.53;;;7.67;;
32786;SDS011;19139;49.372;8.580;2023-02-08T10:22:48;11.60;;;7.63;;
32786;SDS011;19139;49.372;8.580;2023-02-08T10:28:44;7.93;;;6.20;;
32786;SDS011;19139;49.372;8.580;2023-02-08T10:34:46;7.93;;;6.63;;
32786;SDS011;19139;49.372;8.580;2023-02-08T10:37:33;9.63;;;7.00;;
32786;SDS011;19139;49.372;8.580;2023-02-08T10:40:21;9.57;;;7.13;;
32786;SDS011;19139;49.372;8.580;2023-02-08T10:46:19;8.20;;;6.90;;
32786;SDS011;19139;49.372;8.580;2023-02-08T10:51:47;8.67;;;6.40;;
32786;SDS011;19139;49.372;8.580;2023-02-08T10:54:14;8.27;;;6.60;;
32786;SDS011;19139;49.372;8.580;2023-02-08T10:56:54;8.67;;;6.57;;
32786;SDS011;19139;49.372;8.580;2023-02-08T10:59:30;7.90;;;6.47;;
32786;SDS011;19139;49.372;8.580;2023-02-08T11:04:57;8.10;;;5.90;;
32786;SDS011;19139;49.372;8.580;2023-02-08T11:07:26;7.87;;;6.30;;
32786;SDS011;19139;49.372;8.580;2023-02-08T11:12:58;7.67;;;6.27;;
32786;SDS011;19139;49.372;8.580;2023-02-08T11:18:33;7.70;;;6.03;;
32786;SDS011;19139;49.372;8.580;2023-02-08T11:24:05;7.50;;;5.77;;
32786;SDS011;19139;49.372;8.580;2023-02-08T11:26:40;8.27;;;5.70;;
32786;SDS011;19139;49.372;8.580;2023-02-08T11:29:13;8.40;;;6.43;;
32786;SDS011;19139;49.372;8.580;2023-02-08T11:31:55;8.90;;;6.00;;
32786;SDS011;19139;49.372;8.580;2023-02-08T11:34:38;10.00;;;6.00;;
32786;SDS011;19139;49.372;8.580;2023-02-08T11:37:21;8.80;;;5.60;;
32786;SDS011;19139;49.372;8.580;2023-02-08T11:39:58;11.97;;;5.97;;
32786;SDS011;19139;49.372;8.580;2023-02-08T11:42:30;13.57;;;6.33;;
32786;SDS011;19139;49.372;8.580;2023-02-08T11:45:06;10.53;;;6.10;;
32786;SDS011;19139;49.372;8.580;2023-02-08T11:47:38;9.00;;;6.63;;
32786;SDS011;19139;49.372;8.580;2023-02-08T11:50:05;10.67;;;5.97;;
32786;SDS011;19139;49.372;8.580;2023-02-08T11:52:47;11.17;;;5.67;;
32786;SDS011;19139;49.372;8.580;2023-02-08T11:55:27;8.00;;;6.13;;
32786;SDS011;19139;49.372;8.580;2023-02-08T11:57:57;8.03;;;5.27;;
32786;SDS011;19139;49.372;8.580;2023-02-08T12:00:56;7.27;;;5.50;;
32786;SDS011;19139;49.372;8.580;2023-02-08T12:03:30;7.57;;;5.30;;
32786;SDS011;19139;49.372;8.580;2023-02-08T12:06:21;11.47;;;5.93;;
32786;SDS011;19139;49.372;8.580;2023-02-08T12:09:09;7.50;;;5.50;;
32786;SDS011;19139;49.372;8.580;2023-02-08T12:11:49;11.63;;;6.00;;
32786;SDS011;19139;49.372;8.580;2023-02-08T12:19:58;9.93;;;5.87;;
32786;SDS011;19139;49.372;8.580;2023-02-08T12:25:29;10.50;;;5.63;;
32786;SDS011;19139;49.372;8.580;2023-02-08T12:28:09;8.17;;;5.40;;
32786;SDS011;19139;49.372;8.580;2023-02-08T12:30:59;6.70;;;5.17;;
32786;SDS011;19139;49.372;8.580;2023-02-08T12:34:00;6.30;;;5.70;;
32786;SDS011;19139;49.372;8.580;2023-02-08T12:36:54;9.17;;;5.30;;
32786;SDS011;19139;49.372;8.580;2023-02-08T12:40:15;6.00;;;5.37;;
32786;SDS011;19139;49.372;8.580;2023-02-08T12:51:27;6.77;;;5.37;;
32786;SDS011;19139;49.372;8.580;2023-02-08T12:53:59;5.97;;;4.73;;
32786;SDS011;19139;49.372;8.580;2023-02-08T12:56:39;8.40;;;4.53;;
32786;SDS011;19139;49.372;8.580;2023-02-08T12:59:50;6.60;;;4.80;;
32786;SDS011;19139;49.372;8.580;2023-02-08T13:02:18;5.83;;;4.80;;
32786;SDS011;19139;49.372;8.580;2023-02-08T13:04:51;7.90;;;5.30;;
32786;SDS011;19139;49.372;8.580;2023-02-08T13:07:22;5.97;;;4.43;;
32786;SDS011;19139;49.372;8.580;2023-02-08T13:09:55;5.73;;;4.70;;
32786;SDS011;19139;49.372;8.580;2023-02-08T13:12:30;6.33;;;4.17;;
32786;SDS011;19139;49.372;8.580;2023-02-08T13:15:02;5.93;;;4.60;;
32786;SDS011;19139;49.372;8.580;2023-02-08T13:17:58;6.27;;;4.40;;
32786;SDS011;19139;49.372;8.580;2023-02-08T13:20:43;7.30;;;4.70;;
32786;SDS011;19139;49.372;8.580;2023-02-08T13:23:18;5.97;;;4.83;;
32786;SDS011;19139;49.372;8.580;2023-02-08T13:25:49;5.30;;;4.40;;
32786;SDS011;19139;49.372;8.580;2023-02-08T13:28:20;4.93;;;4.10;;
32786;SDS011;19139;49.372;8.580;2023-02-08T13:30:53;6.90;;;4.67;;
32786;SDS011;19139;49.372;8.580;2023-02-08T13:33:29;7.57;;;5.00;;
32786;SDS011;19139;49.372;8.580;2023-02-08T13:38:58;6.77;;;4.50;;
32786;SDS011;19139;49.372;8.580;2023-02-08T13:41:26;6.37;;;4.37;;
32786;SDS011;19139;49.372;8.580;2023-02-08T13:43:56;6.27;;;4.70;;
32786;SDS011;19139;49.372;8.580;2023-02-08T13:46:27;6.07;;;4.53;;
32786;SDS011;19139;49.372;8.580;2023-02-08T13:49:05;9.23;;;6.77;;
32786;SDS011;19139;49.372;8.580;2023-02-08T13:51:49;8.53;;;6.23;;
32786;SDS011;19139;49.372;8.580;2023-02-08T13:54:18;9.60;;;6.67;;
32786;SDS011;19139;49.372;8.580;2023-02-08T13:56:46;8.27;;;6.57;;
32786;SDS011;19139;49.372;8.580;2023-02-08T14:04:37;8.73;;;6.57;;
32786;SDS011;19139;49.372;8.580;2023-02-08T14:07:10;7.80;;;4.90;;
32786;SDS011;19139;49.372;8.580;2023-02-08T14:12:34;6.60;;;5.37;;
32786;SDS011;19139;49.372;8.580;2023-02-08T14:17:47;6.40;;;5.20;;
32786;SDS011;19139;49.372;8.580;2023-02-08T14:20:17;6.53;;;5.23;;
32786;SDS011;19139;49.372;8.580;2023-02-08T14:22:57;6.73;;;4.90;;
32786;SDS011;19139;49.372;8.580;2023-02-08T14:25:29;8.43;;;5.70;;
32786;SDS011;19139;49.372;8.580;2023-02-08T14:28:05;7.40;;;5.47;;
32786;SDS011;19139;49.372;8.580;2023-02-08T14:30:38;5.53;;;4.40;;
32786;SDS011;19139;49.372;8.580;2023-02-08T14:35:32;6.37;;;5.00;;
32786;SDS011;19139;49.372;8.580;2023-02-08T14:46:42;4.87;;;3.97;;
32786;SDS011;19139;49.372;8.580;2023-02-08T14:49:12;8.70;;;4.07;;
32786;SDS011;19139;49.372;8.580;2023-02-08T14:52:02;6.63;;;4.03;;
32786;SDS011;19139;49.372;8.580;2023-02-08T14:54:33;4.93;;;3.83;;
32786;SDS011;19139;49.372;8.580;2023-02-08T14:57:12;5.80;;;3.80;;
32786;SDS011;19139;49.372;8.580;2023-02-08T14:59:57;5.73;;;4.40;;
32786;SDS011;19139;49.372;8.580;2023-02-08T15:02:26;6.50;;;4.23;;
32786;SDS011;19139;49.372;8.580;2023-02-08T15:04:57;5.13;;;4.03;;
32786;SDS011;19139;49.372;8.580;2023-02-08T15:07:28;5.43;;;4.50;;
32786;SDS011;19139;49.372;8.580;2023-02-08T15:10:00;6.70;;;4.17;;
32786;SDS011;19139;49.372;8.580;2023-02-08T15:12:33;4.77;;;3.97;;
32786;SDS011;19139;49.372;8.580;2023-02-08T15:15:03;4.70;;;3.77;;
32786;SDS011;19139;49.372;8.580;2023-02-08T15:17:32;6.57;;;4.63;;
32786;SDS011;19139;49.372;8.580;2023-02-08T15:20:03;5.30;;;3.80;;
32786;SDS011;19139;49.372;8.580;2023-02-08T15:22:38;5.83;;;4.13;;
32786;SDS011;19139;49.372;8.580;2023-02-08T15:28:01;6.40;;;4.03;;
32786;SDS011;19139;49.372;8.580;2023-02-08T15:30:41;4.60;;;3.60;;
32786;SDS011;19139;49.372;8.580;2023-02-08T15:33:17;5.57;;;3.90;;
32786;SDS011;19139;49.372;8.580;2023-02-08T15:35:53;6.20;;;3.77;;
32786;SDS011;19139;49.372;8.580;2023-02-08T15:38:28;4.77;;;3.73;;
32786;SDS011;19139;49.372;8.580;2023-02-08T15:41:08;6.10;;;4.10;;
32786;SDS011;19139;49.372;8.580;2023-02-08T15:43:37;8.47;;;4.07;;
32786;SDS011;19139;49.372;8.580;2023-02-08T15:46:05;8.73;;;3.60;;
32786;SDS011;19139;49.372;8.580;2023-02-08T15:48:47;7.13;;;3.70;;
32786;SDS011;19139;49.372;8.580;2023-02-08T15:51:15;8.20;;;4.30;;
32786;SDS011;19139;49.372;8.580;2023-02-08T15:53:45;6.50;;;3.77;;
32786;SDS011;19139;49.372;8.580;2023-02-08T15:56:15;7.07;;;4.03;;
32786;SDS011;19139;49.372;8.580;2023-02-08T15:59:00;6.50;;;3.80;;
32786;SDS011;19139;49.372;8.580;2023-02-08T16:01:29;7.83;;;3.87;;
32786;SDS011;19139;49.372;8.580;2023-02-08T16:03:57;7.87;;;3.70;;
32786;SDS011;19139;49.372;8.580;2023-02-08T16:06:28;7.93;;;3.77;;
32786;SDS011;19139;49.372;8.580;2023-02-08T16:09:00;7.77;;;3.80;;
32786;SDS011;19139;49.372;8.580;2023-02-08T16:11:29;8.20;;;3.80;;
32786;SDS011;19139;49.372;8.580;2023-02-08T16:13:59;5.10;;;3.77;;
32786;SDS011;19139;49.372;8.580;2023-02-08T16:16:37;7.07;;;3.90;;
32786;SDS011;19139;49.372;8.580;2023-02-08T16:24:44;7.03;;;3.80;;
32786;SDS011;19139;49.372;8.580;2023-02-08T16:27:27;6.90;;;3.63;;
32786;SDS011;19139;49.372;8.580;2023-02-08T16:29:56;5.93;;;3.63;;
32786;SDS011;19139;49.372;8.580;2023-02-08T16:32:27;5.50;;;3.17;;
32786;SDS011;19139;49.372;8.580;2023-02-08T16:34:56;4.33;;;3.50;;
32786;SDS011;19139;49.372;8.580;2023-02-08T16:37:27;6.60;;;4.90;;
32786;SDS011;19139;49.372;8.580;2023-02-08T16:39:57;6.60;;;4.03;;
32786;SDS011;19139;49.372;8.580;2023-02-08T16:42:34;6.73;;;3.70;;
32786;SDS011;19139;49.372;8.580;2023-02-08T16:47:35;6.47;;;3.50;;
32786;SDS011;19139;49.372;8.580;2023-02-08T16:50:10;5.70;;;3.77;;
32786;SDS011;19139;49.372;8.580;2023-02-08T16:52:42;6.43;;;3.90;;
32786;SDS011;19139;49.372;8.580;2023-02-08T16:55:19;6.33;;;3.60;;
32786;SDS011;19139;49.372;8.580;2023-02-08T16:57:49;6.23;;;3.80;;
32786;SDS011;19139;49.372;8.580;2023-02-08T17:02:55;4.67;;;3.63;;
32786;SDS011;19139;49.372;8.580;2023-02-08T17:05:29;5.20;;;3.13;;
32786;SDS011;19139;49.372;8.580;2023-02-08T17:08:05;3.47;;;3.03;;
32786;SDS011;19139;49.372;8.580;2023-02-08T17:10:34;7.33;;;3.43;;
32786;SDS011;19139;49.372;8.580;2023-02-08T17:13:07;6.17;;;3.20;;
32786;SDS011;19139;49.372;8.580;2023-02-08T17:15:49;5.90;;;3.23;;
32786;SDS011;19139;49.372;8.580;2023-02-08T17:18:21;5.63;;;2.97;;
32786;SDS011;19139;49.372;8.580;2023-02-08T17:20:52;4.87;;;3.80;;
32786;SDS011;19139;49.372;8.580;2023-02-08T17:23:29;4.13;;;3.13;;
32786;SDS011;19139;49.372;8.580;2023-02-08T17:26:00;4.73;;;3.17;;
32786;SDS011;19139;49.372;8.580;2023-02-08T17:28:32;4.63;;;3.30;;
32786;SDS011;19139;49.372;8.580;2023-02-08T17:31:03;5.07;;;3.43;;